ADDS METAR Data INFO
IDs: Format: Raw Decoded Include TAF

Data at: 0601 UTC 25 Jun 2018

KPSX 250553Z AUTO 14014G23KT 10SM FEW021 28/26 A2993 RMK AO2 SLP133 T02830256 10294 20278 403220278 50006 $
KPSX 250453Z AUTO 15011KT 10SM FEW022 SCT027 28/26 A2993 RMK AO2 SLP136 T02780256 $
KPSX 250446Z AUTO 15014KT 10SM FEW023 SCT029 28/26 A2993 RMK AO2 T02780256 $
KPSX 250439Z AUTO 14012KT 10SM BKN025 28/26 A2993 RMK AO2 T02780256 $
KPSX 250353Z AUTO 15011KT 10SM FEW022 28/25 A2992 RMK AO2 SLP132 T02780250 $
KPSX 250253Z AUTO 16013KT 10SM CLR 28/25 A2991 RMK AO2 PK WND 33032/0158 SLP127 T02830250 53015 $
KPSX 250153Z AUTO 15011G20KT 10SM FEW020 28/25 A2988 RMK AO2 SLP116 T02780250 $
KPSX 250053Z AUTO 14015KT 10SM CLR 29/26 A2986 RMK AO2 SLP112 T02890256 $
KPSX 242353Z AUTO 14015KT 10SM SCT019 SCT031 29/26 A2986 RMK AO2 SLP111 T02940256 10322 20294 56010 $
KPSX 242253Z AUTO 16013G21KT 10SM CLR 31/26 A2987 RMK AO2 SLP114 T03060256 $
KPSX 242153Z AUTO 16013KT 10SM FEW023 31/26 A2988 RMK AO2 SLP117 T03110256 $
KPSX 242053Z AUTO 15018G24KT 10SM SCT025 31/26 A2989 RMK AO2 PK WND 14026/2003 SLP122 T03110256 58009 $
KPSX 241953Z AUTO 15019G25KT 10SM SCT024 32/26 A2990 RMK AO2 SLP125 T03170256 $
KPSX 241853Z AUTO 16016G21KT 10SM FEW026 32/26 A2993 RMK AO2 SLP133 T03220261 $
KPSX 241753Z AUTO 16014KT 10SM FEW021 FEW037 32/26 A2992 RMK AO2 RAB24E34 SLP132 P0000 60000 T03170261 10317 20283 51012 $
KPSX 241653Z AUTO 18013G19KT 10SM SCT021 SCT029 BKN041 31/26 A2992 RMK AO2 RAB28E48 SLP130 P0000 T03060261 $
KPSX 241638Z AUTO 19011G19KT 9SM -RA BKN021 BKN029 BKN050 29/27 A2991 RMK AO2 RAB28 P0000 T02890267 $
KPSX 241553Z AUTO 18009KT 10SM CLR 31/26 A2990 RMK AO2 SLP124 T03060256 $
KPSX 241453Z AUTO 17012G19KT 10SM CLR 30/26 A2989 RMK AO2 SLP120 T03000256 53008 $
KPSX 241353Z AUTO 18010G20KT 10SM FEW019 SCT031 29/26 A2987 RMK AO2 SLP115 T02940256 $
KPSX 241253Z AUTO 18012KT 10SM FEW018 SCT024 29/26 A2987 RMK AO2 SLP114 T02890261 $
KPSX 241153Z AUTO 17014G20KT 10SM SCT018 BKN025 BKN030 28/26 A2986 RMK AO2 SLP111 T02830261 10283 20278 55000 $
KPSX 241053Z AUTO 17013G19KT 10SM BKN018 28/27 A2986 RMK AO2 SLP111 T02830267 $
KPSX 241014Z AUTO 17012G22KT 10SM BKN020 28/26 A2986 RMK AO2 T02830261 $
KPSX 240953Z AUTO 17015G20KT 10SM SCT020 28/26 A2986 RMK AO2 SLP110 T02830261 $
KPSX 240943Z AUTO 17015G19KT 10SM SCT020 28/26 A2986 RMK AO2 T02830261 $
KPSX 240936Z AUTO 17013KT 10SM BKN020 28/26 A2986 RMK AO2 T02830261 $
KPSX 240853Z AUTO 17016G22KT 10SM SCT024 28/26 A2986 RMK AO2 SLP112 T02830256 56010 $
KPSX 240814Z AUTO 17013G20KT 8SM SCT018 BKN025 28/26 A2987 RMK AO2 T02830261 $
KPSX 240753Z AUTO 17012KT 9SM FEW018 SCT025 28/26 A2988 RMK AO2 SLP117 T02830261 $
KPSX 240751Z AUTO 17013KT 10SM FEW018 BKN025 28/26 A2988 RMK AO2 $
KPSX 240653Z AUTO 17014G21KT 10SM FEW018 SCT022 SCT033 28/26 A2989 RMK AO2 SLP122 T02830261 $
KPSX 240650Z AUTO 17013G20KT 10SM SCT018 SCT029 BKN036 28/26 A2989 RMK AO2 $
KPSX 240643Z AUTO 17015G20KT 10SM SCT016 BKN026 BKN033 28/27 A2989 RMK AO2 T02830267 $
KPSX 240553Z AUTO 16014G24KT 10SM SCT017 SCT022 28/27 A2987 RMK AO2 SLP114 T02830267 10300 20283 403220272 52006 $
KPSX 240548Z AUTO 16013G24KT 10SM SCT017 BKN023 28/27 A2987 RMK AO2 $
KPSX 240517Z AUTO 15013G23KT 10SM SCT017 28/27 A2986 RMK AO2 T02830267 $
KPSX 240453Z AUTO 16016G23KT 10SM SCT015 BKN022 28/27 A2985 RMK AO2 SLP108 T02830267 $
KPSX 240450Z AUTO 16016G23KT 10SM SCT014 BKN022 28/27 A2985 RMK AO2 $
KPSX 240353Z AUTO 16012KT 10SM FEW016 28/27 A2984 RMK AO2 SLP104 T02830267 $
KPSX 240313Z AUTO 16015G21KT 10SM SCT019 28/26 A2983 RMK AO2 T02830261 $
KPSX 240253Z AUTO 15014KT 10SM BKN018 28/27 A2983 RMK AO2 SLP100 T02830267 53006 $
KPSX 240226Z AUTO 15014KT 10SM BKN018 28/26 A2982 RMK AO2 T02830261 $
KPSX 240218Z AUTO 15013KT 10SM SCT017 28/26 A2982 RMK AO2 T02830261 $
KPSX 240209Z AUTO 14013G18KT 10SM BKN017 BKN024 28/27 A2981 RMK AO2 T02830267 $
KPSX 240153Z AUTO 15013G24KT 10SM FEW017 SCT023 28/26 A2981 RMK AO2 SLP094 T02830261 $
KPSX 240108Z AUTO 15014KT 10SM FEW017 SCT025 29/27 A2981 RMK AO2 T02890267 $
KPSX 240101Z AUTO 15012G21KT 10SM SCT017 BKN025 29/27 A2981 RMK AO2 T02890267 $
KPSX 240053Z AUTO 15014G20KT 10SM SCT017 SCT027 29/27 A2981 RMK AO2 SLP094 T02890267 $
KPSX 240046Z AUTO 15016G20KT 10SM FEW017 SCT027 29/26 A2981 RMK AO2 T02890261 $
KPSX 232353Z AUTO 15014G19KT 10SM SCT018 BKN024 30/27 A2981 RMK AO2 SLP095 T03000267 10322 20294 55008 $
KPSX 232328Z AUTO 14017G21KT 10SM SCT017 BKN024 30/27 A2982 RMK AO2 T03000267 $
KPSX 232253Z AUTO 15014KT 10SM SCT019 BKN028 BKN035 31/27 A2981 RMK AO2 SLP094 T03060267 $
KPSX 232234Z AUTO 16012KT 10SM SCT019 BKN030 BKN035 31/26 A2982 RMK AO2 T03110261 $
KPSX 232153Z AUTO 16014G20KT 10SM SCT020 BKN026 32/27 A2982 RMK AO2 SLP098 T03170267 $
KPSX 232053Z AUTO 16017G21KT 10SM FEW019 32/27 A2984 RMK AO2 SLP103 T03170267 58014 $
KPSX 231953Z AUTO 17014KT 10SM FEW018 FEW050 32/27 A2985 RMK AO2 SLP108 T03170267 $
KPSX 231853Z AUTO 17012G22KT 10SM FEW018 FEW032 32/27 A2986 RMK AO2 SLP112 T03170267 $